sensor_id;sensor_type;location;lat;lon;timestamp;P1;durP1;ratioP1;P2;durP2;ratioP2
61590;SDS011;71994;52.410;-1.966;2023-12-14T00:01:57;4.25;;;2.40;;
61590;SDS011;71994;52.410;-1.966;2023-12-14T00:05:03;4.70;;;2.33;;
61590;SDS011;71994;52.410;-1.966;2023-12-14T00:08:10;3.80;;;2.50;;
61590;SDS011;71994;52.410;-1.966;2023-12-14T00:11:16;5.07;;;2.60;;
61590;SDS011;71994;52.410;-1.966;2023-12-14T00:14:25;5.05;;;2.63;;
61590;SDS011;71994;52.410;-1.966;2023-12-14T00:17:31;3.92;;;2.45;;
61590;SDS011;71994;52.410;-1.966;2023-12-14T00:20:37;3.78;;;2.35;;
61590;SDS011;71994;52.410;-1.966;2023-12-14T00:23:43;4.40;;;2.20;;
61590;SDS011;71994;52.410;-1.966;2023-12-14T00:26:50;4.78;;;2.20;;
61590;SDS011;71994;52.410;-1.966;2023-12-14T00:29:58;3.83;;;2.20;;
61590;SDS011;71994;52.410;-1.966;2023-12-14T00:33:05;4.10;;;2.50;;
61590;SDS011;71994;52.410;-1.966;2023-12-14T00:36:17;4.05;;;2.20;;
61590;SDS011;71994;52.410;-1.966;2023-12-14T00:39:23;4.43;;;2.33;;
61590;SDS011;71994;52.410;-1.966;2023-12-14T00:42:32;3.22;;;2.00;;
61590;SDS011;71994;52.410;-1.966;2023-12-14T00:45:41;4.10;;;2.22;;
61590;SDS011;71994;52.410;-1.966;2023-12-14T00:48:48;4.60;;;2.30;;
61590;SDS011;71994;52.410;-1.966;2023-12-14T00:51:54;4.45;;;2.15;;
61590;SDS011;71994;52.410;-1.966;2023-12-14T00:55:01;2.97;;;1.73;;
61590;SDS011;71994;52.410;-1.966;2023-12-14T00:58:07;3.42;;;1.95;;
61590;SDS011;71994;52.410;-1.966;2023-12-14T01:01:18;3.55;;;2.17;;
61590;SDS011;71994;52.410;-1.966;2023-12-14T01:04:24;3.83;;;2.10;;
61590;SDS011;71994;52.410;-1.966;2023-12-14T01:07:30;3.65;;;2.15;;
61590;SDS011;71994;52.410;-1.966;2023-12-14T01:10:36;4.18;;;1.90;;
61590;SDS011;71994;52.410;-1.966;2023-12-14T01:13:43;3.30;;;1.90;;
61590;SDS011;71994;52.410;-1.966;2023-12-14T01:16:52;3.35;;;2.00;;
61590;SDS011;71994;52.410;-1.966;2023-12-14T01:19:58;2.95;;;1.80;;
61590;SDS011;71994;52.410;-1.966;2023-12-14T01:23:04;2.50;;;1.80;;
61590;SDS011;71994;52.410;-1.966;2023-12-14T01:26:12;3.40;;;1.92;;
61590;SDS011;71994;52.410;-1.966;2023-12-14T01:29:18;3.30;;;1.60;;
61590;SDS011;71994;52.410;-1.966;2023-12-14T01:32:27;2.65;;;1.67;;
61590;SDS011;71994;52.410;-1.966;2023-12-14T01:35:33;2.75;;;1.75;;
61590;SDS011;71994;52.410;-1.966;2023-12-14T01:38:39;3.28;;;1.95;;
61590;SDS011;71994;52.410;-1.966;2023-12-14T01:41:45;3.63;;;1.58;;
61590;SDS011;71994;52.410;-1.966;2023-12-14T01:44:52;2.83;;;1.70;;
61590;SDS011;71994;52.410;-1.966;2023-12-14T01:48:00;4.43;;;1.80;;
61590;SDS011;71994;52.410;-1.966;2023-12-14T01:51:07;2.50;;;1.77;;
61590;SDS011;71994;52.410;-1.966;2023-12-14T01:54:13;3.25;;;1.65;;
61590;SDS011;71994;52.410;-1.966;2023-12-14T01:57:19;3.80;;;1.60;;
61590;SDS011;71994;52.410;-1.966;2023-12-14T02:00:27;3.38;;;2.15;;
61590;SDS011;71994;52.410;-1.966;2023-12-14T02:03:46;3.17;;;1.83;;
61590;SDS011;71994;52.410;-1.966;2023-12-14T02:06:56;3.35;;;1.60;;
61590;SDS011;71994;52.410;-1.966;2023-12-14T02:10:03;4.38;;;1.80;;
61590;SDS011;71994;52.410;-1.966;2023-12-14T02:13:10;5.47;;;1.63;;
61590;SDS011;71994;52.410;-1.966;2023-12-14T02:16:17;4.45;;;1.90;;
61590;SDS011;71994;52.410;-1.966;2023-12-14T02:19:26;4.95;;;1.98;;
61590;SDS011;71994;52.410;-1.966;2023-12-14T02:22:47;3.57;;;1.80;;
61590;SDS011;71994;52.410;-1.966;2023-12-14T02:25:54;3.88;;;1.70;;
61590;SDS011;71994;52.410;-1.966;2023-12-14T02:29:01;4.28;;;1.60;;
61590;SDS011;71994;52.410;-1.966;2023-12-14T02:32:07;3.13;;;1.80;;
61590;SDS011;71994;52.410;-1.966;2023-12-14T02:35:13;3.42;;;1.58;;
61590;SDS011;71994;52.410;-1.966;2023-12-14T02:38:23;2.92;;;1.83;;
61590;SDS011;71994;52.410;-1.966;2023-12-14T02:41:30;3.10;;;1.80;;
61590;SDS011;71994;52.410;-1.966;2023-12-14T02:44:36;2.45;;;1.48;;
61590;SDS011;71994;52.410;-1.966;2023-12-14T02:47:42;2.90;;;1.50;;
61590;SDS011;71994;52.410;-1.966;2023-12-14T02:50:50;2.75;;;1.42;;
61590;SDS011;71994;52.410;-1.966;2023-12-14T02:53:59;3.33;;;1.17;;
61590;SDS011;71994;52.410;-1.966;2023-12-14T02:57:05;2.47;;;1.25;;
61590;SDS011;71994;52.410;-1.966;2023-12-14T03:00:12;3.25;;;1.42;;
61590;SDS011;71994;52.410;-1.966;2023-12-14T03:03:18;2.38;;;1.42;;
61590;SDS011;71994;52.410;-1.966;2023-12-14T03:06:25;2.42;;;1.35;;
61590;SDS011;71994;52.410;-1.966;2023-12-14T03:09:34;2.67;;;1.55;;
61590;SDS011;71994;52.410;-1.966;2023-12-14T03:12:40;2.25;;;1.30;;
61590;SDS011;71994;52.410;-1.966;2023-12-14T03:15:46;2.75;;;1.45;;
61590;SDS011;71994;52.410;-1.966;2023-12-14T03:18:53;2.47;;;1.40;;
61590;SDS011;71994;52.410;-1.966;2023-12-14T03:21:59;2.40;;;1.30;;
61590;SDS011;71994;52.410;-1.966;2023-12-14T03:25:09;2.47;;;1.40;;
61590;SDS011;71994;52.410;-1.966;2023-12-14T03:28:15;2.20;;;1.50;;
61590;SDS011;71994;52.410;-1.966;2023-12-14T03:31:21;3.30;;;1.40;;
61590;SDS011;71994;52.410;-1.966;2023-12-14T03:34:27;2.28;;;1.27;;
61590;SDS011;71994;52.410;-1.966;2023-12-14T03:37:34;2.83;;;1.30;;
61590;SDS011;71994;52.410;-1.966;2023-12-14T03:40:43;2.60;;;1.20;;
61590;SDS011;71994;52.410;-1.966;2023-12-14T03:43:49;2.03;;;1.25;;
61590;SDS011;71994;52.410;-1.966;2023-12-14T03:46:56;2.50;;;1.40;;
61590;SDS011;71994;52.410;-1.966;2023-12-14T03:50:03;3.33;;;1.20;;
61590;SDS011;71994;52.410;-1.966;2023-12-14T03:53:09;2.08;;;1.05;;
61590;SDS011;71994;52.410;-1.966;2023-12-14T03:56:18;1.77;;;1.00;;
61590;SDS011;71994;52.410;-1.966;2023-12-14T03:59:25;2.58;;;1.20;;
61590;SDS011;71994;52.410;-1.966;2023-12-14T04:02:31;1.50;;;0.90;;
61590;SDS011;71994;52.410;-1.966;2023-12-14T04:05:37;2.15;;;1.13;;
61590;SDS011;71994;52.410;-1.966;2023-12-14T04:08:43;2.15;;;1.30;;
61590;SDS011;71994;52.410;-1.966;2023-12-14T04:11:52;3.13;;;1.20;;
61590;SDS011;71994;52.410;-1.966;2023-12-14T04:14:58;2.05;;;1.08;;
61590;SDS011;71994;52.410;-1.966;2023-12-14T04:18:06;3.03;;;1.20;;
61590;SDS011;71994;52.410;-1.966;2023-12-14T04:21:12;3.50;;;1.10;;
61590;SDS011;71994;52.410;-1.966;2023-12-14T04:24:19;2.70;;;0.98;;
61590;SDS011;71994;52.410;-1.966;2023-12-14T04:27:27;1.83;;;1.20;;
61590;SDS011;71994;52.410;-1.966;2023-12-14T04:30:34;2.30;;;1.20;;
61590;SDS011;71994;52.410;-1.966;2023-12-14T04:33:40;2.50;;;1.20;;
61590;SDS011;71994;52.410;-1.966;2023-12-14T04:36:46;1.70;;;1.00;;
61590;SDS011;71994;52.410;-1.966;2023-12-14T04:39:53;2.22;;;1.15;;
61590;SDS011;71994;52.410;-1.966;2023-12-14T04:43:02;2.55;;;1.20;;
61590;SDS011;71994;52.410;-1.966;2023-12-14T04:46:08;2.15;;;1.10;;
61590;SDS011;71994;52.410;-1.966;2023-12-14T04:49:18;2.00;;;1.20;;
61590;SDS011;71994;52.410;-1.966;2023-12-14T04:52:24;1.88;;;1.02;;
61590;SDS011;71994;52.410;-1.966;2023-12-14T04:55:31;2.40;;;1.00;;
61590;SDS011;71994;52.410;-1.966;2023-12-14T04:58:40;2.33;;;1.30;;
61590;SDS011;71994;52.410;-1.966;2023-12-14T05:01:47;1.40;;;0.95;;
61590;SDS011;71994;52.410;-1.966;2023-12-14T05:04:53;3.10;;;1.08;;
61590;SDS011;71994;52.410;-1.966;2023-12-14T05:07:59;3.35;;;1.20;;
61590;SDS011;71994;52.410;-1.966;2023-12-14T05:11:05;2.05;;;1.10;;
61590;SDS011;71994;52.410;-1.966;2023-12-14T05:14:14;2.20;;;0.93;;
61590;SDS011;71994;52.410;-1.966;2023-12-14T05:17:21;2.57;;;1.10;;
61590;SDS011;71994;52.410;-1.966;2023-12-14T05:20:27;2.53;;;1.15;;
61590;SDS011;71994;52.410;-1.966;2023-12-14T05:23:33;2.63;;;1.10;;
61590;SDS011;71994;52.410;-1.966;2023-12-14T05:26:39;2.47;;;1.08;;
61590;SDS011;71994;52.410;-1.966;2023-12-14T05:29:48;1.98;;;1.13;;
61590;SDS011;71994;52.410;-1.966;2023-12-14T05:32:55;2.67;;;1.20;;
61590;SDS011;71994;52.410;-1.966;2023-12-14T05:36:01;1.73;;;0.98;;
61590;SDS011;71994;52.410;-1.966;2023-12-14T05:39:11;1.92;;;0.93;;
61590;SDS011;71994;52.410;-1.966;2023-12-14T05:42:17;2.20;;;1.05;;
61590;SDS011;71994;52.410;-1.966;2023-12-14T05:45:26;1.38;;;0.82;;
61590;SDS011;71994;52.410;-1.966;2023-12-14T05:48:33;1.75;;;1.10;;
61590;SDS011;71994;52.410;-1.966;2023-12-14T05:51:39;1.83;;;0.98;;
61590;SDS011;71994;52.410;-1.966;2023-12-14T05:54:45;2.45;;;1.13;;
61590;SDS011;71994;52.410;-1.966;2023-12-14T05:57:51;2.08;;;1.10;;
61590;SDS011;71994;52.410;-1.966;2023-12-14T06:01:01;2.15;;;0.93;;
61590;SDS011;71994;52.410;-1.966;2023-12-14T06:04:08;1.73;;;0.90;;
61590;SDS011;71994;52.410;-1.966;2023-12-14T06:07:14;3.25;;;1.10;;
61590;SDS011;71994;52.410;-1.966;2023-12-14T06:10:21;2.20;;;1.00;;
61590;SDS011;71994;52.410;-1.966;2023-12-14T06:13:27;1.88;;;1.10;;
61590;SDS011;71994;52.410;-1.966;2023-12-14T06:16:36;2.85;;;1.00;;
61590;SDS011;71994;52.410;-1.966;2023-12-14T06:19:42;1.20;;;0.73;;
61590;SDS011;71994;52.410;-1.966;2023-12-14T06:22:48;1.58;;;0.93;;
61590;SDS011;71994;52.410;-1.966;2023-12-14T06:25:55;1.65;;;1.00;;
61590;SDS011;71994;52.410;-1.966;2023-12-14T06:29:01;1.70;;;1.00;;
61590;SDS011;71994;52.410;-1.966;2023-12-14T06:32:10;2.42;;;0.98;;
61590;SDS011;71994;52.410;-1.966;2023-12-14T06:35:16;2.13;;;0.90;;
61590;SDS011;71994;52.410;-1.966;2023-12-14T06:38:23;1.92;;;1.00;;
61590;SDS011;71994;52.410;-1.966;2023-12-14T06:41:29;2.28;;;1.00;;
61590;SDS011;71994;52.410;-1.966;2023-12-14T06:44:35;2.10;;;1.00;;
61590;SDS011;71994;52.410;-1.966;2023-12-14T06:47:44;2.17;;;1.08;;
61590;SDS011;71994;52.410;-1.966;2023-12-14T06:50:51;1.55;;;0.82;;
61590;SDS011;71994;52.410;-1.966;2023-12-14T06:53:58;1.98;;;0.90;;
61590;SDS011;71994;52.410;-1.966;2023-12-14T06:57:04;1.92;;;1.00;;
61590;SDS011;71994;52.410;-1.966;2023-12-14T07:00:11;2.95;;;1.20;;
61590;SDS011;71994;52.410;-1.966;2023-12-14T07:03:21;1.80;;;1.02;;
61590;SDS011;71994;52.410;-1.966;2023-12-14T07:06:27;2.10;;;0.97;;
61590;SDS011;71994;52.410;-1.966;2023-12-14T07:09:34;1.40;;;0.88;;
61590;SDS011;71994;52.410;-1.966;2023-12-14T07:12:40;2.60;;;1.20;;
61590;SDS011;71994;52.410;-1.966;2023-12-14T07:15:47;1.48;;;0.90;;
61590;SDS011;71994;52.410;-1.966;2023-12-14T07:18:56;2.17;;;0.90;;
61590;SDS011;71994;52.410;-1.966;2023-12-14T07:22:02;2.70;;;0.82;;
61590;SDS011;71994;52.410;-1.966;2023-12-14T07:25:08;1.58;;;0.82;;
61590;SDS011;71994;52.410;-1.966;2023-12-14T07:28:15;1.80;;;1.00;;
61590;SDS011;71994;52.410;-1.966;2023-12-14T07:31:21;1.42;;;0.75;;
61590;SDS011;71994;52.410;-1.966;2023-12-14T07:34:30;1.42;;;0.70;;
61590;SDS011;71994;52.410;-1.966;2023-12-14T07:37:36;2.13;;;0.98;;
61590;SDS011;71994;52.410;-1.966;2023-12-14T07:40:43;1.55;;;0.80;;
61590;SDS011;71994;52.410;-1.966;2023-12-14T07:43:49;1.65;;;0.98;;
61590;SDS011;71994;52.410;-1.966;2023-12-14T07:46:55;1.73;;;0.80;;
61590;SDS011;71994;52.410;-1.966;2023-12-14T07:50:05;1.50;;;0.80;;
61590;SDS011;71994;52.410;-1.966;2023-12-14T07:53:12;1.58;;;0.85;;
61590;SDS011;71994;52.410;-1.966;2023-12-14T07:56:18;1.63;;;0.90;;
61590;SDS011;71994;52.410;-1.966;2023-12-14T07:59:28;1.60;;;0.80;;
61590;SDS011;71994;52.410;-1.966;2023-12-14T08:02:34;1.48;;;0.80;;
61590;SDS011;71994;52.410;-1.966;2023-12-14T08:05:43;2.38;;;0.88;;
61590;SDS011;71994;52.410;-1.966;2023-12-14T08:08:49;1.67;;;0.93;;
61590;SDS011;71994;52.410;-1.966;2023-12-14T08:11:56;1.83;;;0.88;;
61590;SDS011;71994;52.410;-1.966;2023-12-14T08:15:02;1.55;;;0.80;;
61590;SDS011;71994;52.410;-1.966;2023-12-14T08:18:10;1.80;;;0.90;;
61590;SDS011;71994;52.410;-1.966;2023-12-14T08:21:20;1.73;;;0.90;;
61590;SDS011;71994;52.410;-1.966;2023-12-14T08:24:26;1.52;;;0.75;;
61590;SDS011;71994;52.410;-1.966;2023-12-14T08:27:32;1.75;;;0.70;;
61590;SDS011;71994;52.410;-1.966;2023-12-14T08:30:38;2.58;;;1.10;;
61590;SDS011;71994;52.410;-1.966;2023-12-14T08:33:45;2.20;;;0.90;;
61590;SDS011;71994;52.410;-1.966;2023-12-14T08:36:54;1.90;;;0.93;;
61590;SDS011;71994;52.410;-1.966;2023-12-14T08:40:00;2.43;;;1.00;;
61590;SDS011;71994;52.410;-1.966;2023-12-14T08:43:06;2.13;;;0.98;;
61590;SDS011;71994;52.410;-1.966;2023-12-14T08:46:12;2.00;;;0.90;;
61590;SDS011;71994;52.410;-1.966;2023-12-14T08:49:19;2.95;;;1.08;;
61590;SDS011;71994;52.410;-1.966;2023-12-14T08:52:28;2.22;;;0.90;;
61590;SDS011;71994;52.410;-1.966;2023-12-14T08:55:34;2.83;;;1.10;;
61590;SDS011;71994;52.410;-1.966;2023-12-14T08:58:41;1.65;;;0.90;;
61590;SDS011;71994;52.410;-1.966;2023-12-14T09:01:47;2.50;;;1.10;;
61590;SDS011;71994;52.410;-1.966;2023-12-14T09:04:54;2.50;;;1.05;;
61590;SDS011;71994;52.410;-1.966;2023-12-14T09:08:03;2.28;;;1.10;;
61590;SDS011;71994;52.410;-1.966;2023-12-14T09:11:09;2.43;;;0.93;;
61590;SDS011;71994;52.410;-1.966;2023-12-14T09:14:15;2.13;;;1.02;;
61590;SDS011;71994;52.410;-1.966;2023-12-14T09:17:21;1.90;;;0.90;;
61590;SDS011;71994;52.410;-1.966;2023-12-14T09:20:28;1.67;;;1.00;;
61590;SDS011;71994;52.410;-1.966;2023-12-14T09:23:37;2.65;;;1.20;;
61590;SDS011;71994;52.410;-1.966;2023-12-14T09:26:44;1.63;;;0.82;;
61590;SDS011;71994;52.410;-1.966;2023-12-14T09:29:50;1.92;;;1.00;;
61590;SDS011;71994;52.410;-1.966;2023-12-14T09:32:56;1.80;;;0.93;;
61590;SDS011;71994;52.410;-1.966;2023-12-14T09:36:03;3.08;;;1.00;;
61590;SDS011;71994;52.410;-1.966;2023-12-14T09:39:13;2.45;;;1.15;;
61590;SDS011;71994;52.410;-1.966;2023-12-14T09:42:21;1.63;;;0.85;;
61590;SDS011;71994;52.410;-1.966;2023-12-14T09:45:28;2.75;;;1.13;;
61590;SDS011;71994;52.410;-1.966;2023-12-14T09:48:36;2.25;;;1.00;;
61590;SDS011;71994;52.410;-1.966;2023-12-14T09:51:43;2.10;;;0.98;;
61590;SDS011;71994;52.410;-1.966;2023-12-14T09:54:53;1.98;;;1.20;;
61590;SDS011;71994;52.410;-1.966;2023-12-14T09:57:59;2.23;;;1.17;;
61590;SDS011;71994;52.410;-1.966;2023-12-14T10:01:20;2.38;;;1.15;;
61590;SDS011;71994;52.410;-1.966;2023-12-14T10:04:27;1.55;;;1.00;;
61590;SDS011;71994;52.410;-1.966;2023-12-14T10:07:38;1.60;;;1.00;;
61590;SDS011;71994;52.410;-1.966;2023-12-14T10:10:52;3.67;;;1.00;;
61590;SDS011;71994;52.410;-1.966;2023-12-14T10:13:59;3.55;;;1.00;;
61590;SDS011;71994;52.410;-1.966;2023-12-14T10:17:13;2.00;;;1.20;;
61590;SDS011;71994;52.410;-1.966;2023-12-14T10:20:22;1.90;;;0.95;;
61590;SDS011;71994;52.410;-1.966;2023-12-14T10:23:28;1.70;;;1.00;;
61590;SDS011;71994;52.410;-1.966;2023-12-14T10:26:38;2.78;;;1.00;;
61590;SDS011;71994;52.410;-1.966;2023-12-14T10:29:44;2.50;;;0.95;;
61590;SDS011;71994;52.410;-1.966;2023-12-14T10:32:53;3.15;;;1.02;;
61590;SDS011;71994;52.410;-1.966;2023-12-14T10:35:59;2.15;;;1.00;;
61590;SDS011;71994;52.410;-1.966;2023-12-14T10:39:08;1.75;;;1.00;;
61590;SDS011;71994;52.410;-1.966;2023-12-14T10:42:22;1.90;;;0.90;;
61590;SDS011;71994;52.410;-1.966;2023-12-14T10:45:31;2.45;;;1.00;;
61590;SDS011;71994;52.410;-1.966;2023-12-14T10:48:38;3.00;;;1.00;;
61590;SDS011;71994;52.410;-1.966;2023-12-14T10:51:46;1.70;;;0.90;;
61590;SDS011;71994;52.410;-1.966;2023-12-14T10:54:53;2.30;;;1.10;;
61590;SDS011;71994;52.410;-1.966;2023-12-14T10:58:07;2.15;;;1.00;;
61590;SDS011;71994;52.410;-1.966;2023-12-14T11:01:15;1.90;;;1.13;;
61590;SDS011;71994;52.410;-1.966;2023-12-14T11:04:22;1.85;;;0.98;;
61590;SDS011;71994;52.410;-1.966;2023-12-14T11:07:45;2.10;;;1.20;;
61590;SDS011;71994;52.410;-1.966;2023-12-14T11:10:53;2.30;;;1.10;;
61590;SDS011;71994;52.410;-1.966;2023-12-14T11:14:08;1.67;;;1.00;;
61590;SDS011;71994;52.410;-1.966;2023-12-14T11:17:21;2.83;;;1.10;;
61590;SDS011;71994;52.410;-1.966;2023-12-14T11:20:27;2.38;;;0.90;;
61590;SDS011;71994;52.410;-1.966;2023-12-14T11:23:35;2.42;;;1.00;;
61590;SDS011;71994;52.410;-1.966;2023-12-14T11:26:42;1.70;;;1.10;;
61590;SDS011;71994;52.410;-1.966;2023-12-14T11:29:52;3.75;;;1.27;;
61590;SDS011;71994;52.410;-1.966;2023-12-14T11:32:58;1.95;;;0.98;;
61590;SDS011;71994;52.410;-1.966;2023-12-14T11:36:05;1.63;;;1.10;;
61590;SDS011;71994;52.410;-1.966;2023-12-14T11:39:12;2.13;;;1.00;;
61590;SDS011;71994;52.410;-1.966;2023-12-14T11:42:18;2.00;;;1.17;;
61590;SDS011;71994;52.410;-1.966;2023-12-14T11:45:27;1.80;;;0.90;;
61590;SDS011;71994;52.410;-1.966;2023-12-14T11:48:33;4.35;;;1.10;;
61590;SDS011;71994;52.410;-1.966;2023-12-14T11:51:40;1.35;;;1.00;;
61590;SDS011;71994;52.410;-1.966;2023-12-14T11:54:50;2.47;;;1.10;;
61590;SDS011;71994;52.410;-1.966;2023-12-14T11:57:58;2.00;;;1.08;;
61590;SDS011;71994;52.410;-1.966;2023-12-14T12:01:17;5.60;;;1.10;;
61590;SDS011;71994;52.410;-1.966;2023-12-14T12:04:26;1.83;;;1.10;;
61590;SDS011;71994;52.410;-1.966;2023-12-14T12:07:33;2.28;;;1.00;;
61590;SDS011;71994;52.410;-1.966;2023-12-14T12:10:39;3.03;;;1.20;;
61590;SDS011;71994;52.410;-1.966;2023-12-14T12:13:50;1.58;;;1.10;;
61590;SDS011;71994;52.410;-1.966;2023-12-14T12:16:59;3.10;;;1.00;;
61590;SDS011;71994;52.410;-1.966;2023-12-14T12:23:13;2.33;;;1.10;;
61590;SDS011;71994;52.410;-1.966;2023-12-14T12:26:21;1.92;;;1.15;;
61590;SDS011;71994;52.410;-1.966;2023-12-14T12:29:27;3.17;;;1.25;;
61590;SDS011;71994;52.410;-1.966;2023-12-14T12:32:36;2.95;;;1.20;;
61590;SDS011;71994;52.410;-1.966;2023-12-14T12:35:45;3.25;;;1.38;;
61590;SDS011;71994;52.410;-1.966;2023-12-14T12:38:51;2.00;;;1.20;;
61590;SDS011;71994;52.410;-1.966;2023-12-14T12:41:58;2.22;;;1.15;;
61590;SDS011;71994;52.410;-1.966;2023-12-14T12:45:05;2.30;;;1.05;;
61590;SDS011;71994;52.410;-1.966;2023-12-14T12:48:15;1.92;;;1.13;;
61590;SDS011;71994;52.410;-1.966;2023-12-14T12:51:21;1.50;;;1.10;;
61590;SDS011;71994;52.410;-1.966;2023-12-14T12:54:28;2.13;;;1.08;;
61590;SDS011;71994;52.410;-1.966;2023-12-14T12:57:36;2.10;;;1.20;;
61590;SDS011;71994;52.410;-1.966;2023-12-14T13:00:42;2.67;;;1.10;;
61590;SDS011;71994;52.410;-1.966;2023-12-14T13:03:54;2.35;;;1.10;;
61590;SDS011;71994;52.410;-1.966;2023-12-14T13:07:01;3.00;;;0.88;;
61590;SDS011;71994;52.410;-1.966;2023-12-14T13:10:10;1.87;;;1.00;;
61590;SDS011;71994;52.410;-1.966;2023-12-14T13:13:17;1.83;;;1.10;;
61590;SDS011;71994;52.410;-1.966;2023-12-14T13:16:23;2.17;;;1.10;;
61590;SDS011;71994;52.410;-1.966;2023-12-14T13:19:32;2.13;;;1.23;;
61590;SDS011;71994;52.410;-1.966;2023-12-14T13:22:39;1.30;;;0.90;;
61590;SDS011;71994;52.410;-1.966;2023-12-14T13:25:45;1.90;;;1.10;;
61590;SDS011;71994;52.410;-1.966;2023-12-14T13:28:52;1.88;;;1.00;;
61590;SDS011;71994;52.410;-1.966;2023-12-14T13:31:58;2.10;;;0.98;;
61590;SDS011;71994;52.410;-1.966;2023-12-14T13:35:07;3.00;;;1.13;;
61590;SDS011;71994;52.410;-1.966;2023-12-14T13:38:14;2.13;;;1.13;;
61590;SDS011;71994;52.410;-1.966;2023-12-14T13:41:21;2.10;;;1.00;;
61590;SDS011;71994;52.410;-1.966;2023-12-14T13:44:28;3.08;;;1.20;;
61590;SDS011;71994;52.410;-1.966;2023-12-14T13:47:34;3.38;;;1.10;;
61590;SDS011;71994;52.410;-1.966;2023-12-14T13:50:43;2.53;;;1.15;;
61590;SDS011;71994;52.410;-1.966;2023-12-14T13:53:50;1.95;;;1.13;;
61590;SDS011;71994;52.410;-1.966;2023-12-14T13:56:56;2.17;;;1.10;;
61590;SDS011;71994;52.410;-1.966;2023-12-14T14:00:02;2.63;;;1.33;;
61590;SDS011;71994;52.410;-1.966;2023-12-14T14:03:09;1.83;;;1.13;;
61590;SDS011;71994;52.410;-1.966;2023-12-14T14:06:19;1.67;;;0.93;;
61590;SDS011;71994;52.410;-1.966;2023-12-14T14:09:26;2.10;;;1.10;;
61590;SDS011;71994;52.410;-1.966;2023-12-14T14:12:32;2.20;;;1.13;;
61590;SDS011;71994;52.410;-1.966;2023-12-14T14:15:40;2.83;;;1.20;;
61590;SDS011;71994;52.410;-1.966;2023-12-14T14:18:46;1.80;;;1.00;;
61590;SDS011;71994;52.410;-1.966;2023-12-14T14:21:55;2.65;;;1.33;;
61590;SDS011;71994;52.410;-1.966;2023-12-14T14:25:02;2.50;;;1.20;;
61590;SDS011;71994;52.410;-1.966;2023-12-14T14:28:08;2.35;;;1.15;;
61590;SDS011;71994;52.410;-1.966;2023-12-14T14:31:15;2.17;;;1.20;;
61590;SDS011;71994;52.410;-1.966;2023-12-14T14:34:21;1.92;;;1.13;;
61590;SDS011;71994;52.410;-1.966;2023-12-14T14:37:30;2.35;;;1.10;;
61590;SDS011;71994;52.410;-1.966;2023-12-14T14:40:37;2.10;;;1.10;;
61590;SDS011;71994;52.410;-1.966;2023-12-14T14:43:44;2.30;;;1.05;;
61590;SDS011;71994;52.410;-1.966;2023-12-14T14:46:50;6.43;;;1.45;;
61590;SDS011;71994;52.410;-1.966;2023-12-14T14:49:57;2.30;;;1.10;;
61590;SDS011;71994;52.410;-1.966;2023-12-14T14:53:09;2.70;;;1.33;;
61590;SDS011;71994;52.410;-1.966;2023-12-14T14:56:16;3.35;;;1.20;;
61590;SDS011;71994;52.410;-1.966;2023-12-14T14:59:22;3.22;;;1.02;;
61590;SDS011;71994;52.410;-1.966;2023-12-14T15:02:29;3.13;;;1.20;;
61590;SDS011;71994;52.410;-1.966;2023-12-14T15:05:35;2.72;;;1.30;;
61590;SDS011;71994;52.410;-1.966;2023-12-14T15:08:45;6.25;;;1.42;;
61590;SDS011;71994;52.410;-1.966;2023-12-14T15:11:51;3.60;;;1.10;;
61590;SDS011;71994;52.410;-1.966;2023-12-14T15:14:57;4.43;;;1.10;;
61590;SDS011;71994;52.410;-1.966;2023-12-14T15:18:04;4.80;;;1.58;;
61590;SDS011;71994;52.410;-1.966;2023-12-14T15:21:10;3.85;;;1.30;;
61590;SDS011;71994;52.410;-1.966;2023-12-14T15:24:20;3.15;;;1.35;;
61590;SDS011;71994;52.410;-1.966;2023-12-14T15:27:26;7.87;;;1.60;;
61590;SDS011;71994;52.410;-1.966;2023-12-14T15:30:33;2.25;;;1.10;;
61590;SDS011;71994;52.410;-1.966;2023-12-14T15:33:40;5.43;;;1.52;;
61590;SDS011;71994;52.410;-1.966;2023-12-14T15:36:46;2.25;;;1.35;;
61590;SDS011;71994;52.410;-1.966;2023-12-14T15:39:55;2.92;;;1.35;;
61590;SDS011;71994;52.410;-1.966;2023-12-14T15:43:01;6.23;;;1.63;;
61590;SDS011;71994;52.410;-1.966;2023-12-14T15:46:14;2.28;;;1.42;;
61590;SDS011;71994;52.410;-1.966;2023-12-14T15:49:20;2.85;;;1.13;;
61590;SDS011;71994;52.410;-1.966;2023-12-14T15:52:26;3.78;;;1.40;;
61590;SDS011;71994;52.410;-1.966;2023-12-14T15:55:35;1.75;;;1.10;;
61590;SDS011;71994;52.410;-1.966;2023-12-14T15:58:42;3.92;;;1.40;;
61590;SDS011;71994;52.410;-1.966;2023-12-14T16:01:49;3.25;;;1.60;;
61590;SDS011;71994;52.410;-1.966;2023-12-14T16:04:55;4.53;;;2.22;;
61590;SDS011;71994;52.410;-1.966;2023-12-14T16:08:01;4.55;;;2.30;;
61590;SDS011;71994;52.410;-1.966;2023-12-14T16:11:13;4.28;;;2.70;;
61590;SDS011;71994;52.410;-1.966;2023-12-14T16:14:19;7.27;;;2.70;;
61590;SDS011;71994;52.410;-1.966;2023-12-14T16:17:25;5.05;;;2.47;;
61590;SDS011;71994;52.410;-1.966;2023-12-14T16:20:31;5.13;;;3.08;;
61590;SDS011;71994;52.410;-1.966;2023-12-14T16:23:37;4.28;;;2.38;;
61590;SDS011;71994;52.410;-1.966;2023-12-14T16:26:47;3.78;;;2.35;;
61590;SDS011;71994;52.410;-1.966;2023-12-14T16:29:55;5.13;;;2.50;;
61590;SDS011;71994;52.410;-1.966;2023-12-14T16:33:01;6.40;;;2.60;;
61590;SDS011;71994;52.410;-1.966;2023-12-14T16:36:11;4.90;;;2.55;;
61590;SDS011;71994;52.410;-1.966;2023-12-14T16:39:18;3.50;;;2.15;;
61590;SDS011;71994;52.410;-1.966;2023-12-14T16:42:30;7.90;;;2.95;;
61590;SDS011;71994;52.410;-1.966;2023-12-14T16:45:36;7.47;;;3.30;;
61590;SDS011;71994;52.410;-1.966;2023-12-14T16:48:43;5.70;;;2.75;;
61590;SDS011;71994;52.410;-1.966;2023-12-14T16:51:49;7.22;;;2.40;;
61590;SDS011;71994;52.410;-1.966;2023-12-14T16:54:55;4.53;;;2.65;;
61590;SDS011;71994;52.410;-1.966;2023-12-14T16:58:04;5.38;;;2.72;;
61590;SDS011;71994;52.410;-1.966;2023-12-14T17:01:11;7.40;;;2.97;;
61590;SDS011;71994;52.410;-1.966;2023-12-14T17:04:17;7.13;;;3.00;;
61590;SDS011;71994;52.410;-1.966;2023-12-14T17:07:23;6.53;;;2.90;;
61590;SDS011;71994;52.410;-1.966;2023-12-14T17:10:30;8.45;;;3.10;;
61590;SDS011;71994;52.410;-1.966;2023-12-14T17:13:42;7.75;;;2.70;;
61590;SDS011;71994;52.410;-1.966;2023-12-14T17:16:48;5.50;;;2.70;;
61590;SDS011;71994;52.410;-1.966;2023-12-14T17:19:56;5.03;;;3.00;;
61590;SDS011;71994;52.410;-1.966;2023-12-14T17:23:02;5.15;;;2.90;;
61590;SDS011;71994;52.410;-1.966;2023-12-14T17:26:09;5.78;;;2.90;;
61590;SDS011;71994;52.410;-1.966;2023-12-14T17:29:18;5.97;;;2.83;;
61590;SDS011;71994;52.410;-1.966;2023-12-14T17:32:25;6.30;;;3.10;;
61590;SDS011;71994;52.410;-1.966;2023-12-14T17:35:31;8.30;;;2.78;;
61590;SDS011;71994;52.410;-1.966;2023-12-14T17:38:37;5.20;;;2.95;;
61590;SDS011;71994;52.410;-1.966;2023-12-14T17:41:44;9.57;;;3.28;;
61590;SDS011;71994;52.410;-1.966;2023-12-14T17:44:53;5.82;;;3.30;;
61590;SDS011;71994;52.410;-1.966;2023-12-14T17:48:00;9.05;;;3.40;;
61590;SDS011;71994;52.410;-1.966;2023-12-14T17:51:06;7.13;;;3.25;;
61590;SDS011;71994;52.410;-1.966;2023-12-14T17:54:13;8.80;;;3.28;;
61590;SDS011;71994;52.410;-1.966;2023-12-14T17:57:19;5.97;;;3.55;;
61590;SDS011;71994;52.410;-1.966;2023-12-14T18:00:28;9.23;;;3.80;;
61590;SDS011;71994;52.410;-1.966;2023-12-14T18:03:34;6.97;;;3.60;;
61590;SDS011;71994;52.410;-1.966;2023-12-14T18:06:41;9.10;;;3.30;;
61590;SDS011;71994;52.410;-1.966;2023-12-14T18:09:49;7.75;;;3.00;;
61590;SDS011;71994;52.410;-1.966;2023-12-14T18:12:55;6.32;;;3.45;;
61590;SDS011;71994;52.410;-1.966;2023-12-14T18:16:05;6.47;;;3.30;;
61590;SDS011;71994;52.410;-1.966;2023-12-14T18:19:12;5.53;;;3.10;;
61590;SDS011;71994;52.410;-1.966;2023-12-14T18:22:18;10.00;;;3.33;;
61590;SDS011;71994;52.410;-1.966;2023-12-14T18:25:24;9.52;;;3.42;;
61590;SDS011;71994;52.410;-1.966;2023-12-14T18:28:31;5.60;;;3.30;;
61590;SDS011;71994;52.410;-1.966;2023-12-14T18:31:41;6.47;;;2.85;;
61590;SDS011;71994;52.410;-1.966;2023-12-14T18:34:47;6.03;;;2.87;;